Time;durP1;ratioP1;P1;durP2;ratioP2;P2;SDS_P1;SDS_P2;PMS_P1;PMS_P2;Temp;Humidity;BMP_temperature;BMP_pressure;BME280_temperature;BME280_humidity;BME280_pressure;Samples;Min_cycle;Max_cycle;Signal;HPM_P1;HPM_P2
2023/12/24 00:01:16;;;;;;;5.30;4.20;;;4.70;99.90;;;;;;4976910;28;20535;-63
2023/12/24 00:03:44;;;;;;;3.90;3.60;;;4.70;99.90;;;;;;4976252;28;20891;-63
2023/12/24 00:06:12;;;;;;;4.50;4.10;;;4.60;99.90;;;;;;4981210;28;20488;-64
2023/12/24 00:08:41;;;;;;;4.17;3.77;;;4.60;99.90;;;;;;4981509;28;20914;-64
2023/12/24 00:11:09;;;;;;;4.40;4.00;;;4.60;99.90;;;;;;4979743;28;20478;-64
2023/12/24 00:13:37;;;;;;;4.07;3.67;;;4.60;99.90;;;;;;4978524;28;20483;-64
2023/12/24 00:16:06;;;;;;;4.37;3.87;;;4.60;99.90;;;;;;4977634;28;20489;-64
2023/12/24 00:18:34;;;;;;;5.40;4.13;;;4.60;99.90;;;;;;4977823;28;20551;-64
2023/12/24 00:21:02;;;;;;;4.10;3.80;;;4.60;99.90;;;;;;4979942;28;20478;-63
2023/12/24 00:23:31;;;;;;;4.63;4.23;;;4.60;99.90;;;;;;4980511;28;20494;-64
2023/12/24 00:25:59;;;;;;;4.20;3.60;;;4.60;99.90;;;;;;4976970;28;20890;-64
2023/12/24 00:28:27;;;;;;;3.97;3.67;;;4.60;99.90;;;;;;4977003;28;20512;-64
2023/12/24 00:30:55;;;;;;;3.90;3.60;;;4.60;99.90;;;;;;4979460;28;20477;-64
2023/12/24 00:33:24;;;;;;;3.60;3.30;;;4.60;99.90;;;;;;4980999;28;20547;-64
2023/12/24 00:35:52;;;;;;;3.53;3.23;;;4.60;99.90;;;;;;4976125;28;21034;-64
2023/12/24 00:38:20;;;;;;;3.67;3.37;;;4.70;99.90;;;;;;4978526;28;20572;-64
2023/12/24 00:40:48;;;;;;;4.20;3.80;;;4.70;99.90;;;;;;4979047;28;20976;-63
2023/12/24 00:43:16;;;;;;;4.70;4.30;;;4.70;99.90;;;;;;4979051;28;20895;-64
2023/12/24 00:45:44;;;;;;;4.70;4.30;;;4.70;99.90;;;;;;4978119;28;20493;-64
2023/12/24 00:48:12;;;;;;;4.13;3.83;;;4.70;99.90;;;;;;4979218;28;20485;-63
2023/12/24 00:50:42;;;;;;;3.50;3.20;;;4.70;99.90;;;;;;4979275;28;20479;-64
2023/12/24 00:53:10;;;;;;;3.70;3.10;;;4.70;99.90;;;;;;4980391;28;20466;-63
2023/12/24 00:55:41;;;;;;;3.73;3.43;;;4.70;99.90;;;;;;4979785;28;20592;-63
2023/12/24 00:58:09;;;;;;;4.00;3.70;;;4.70;99.90;;;;;;4970287;28;20638;-64
2023/12/24 01:00:37;;;;;;;3.97;3.57;;;4.70;99.90;;;;;;4977936;28;20470;-63
2023/12/24 01:03:05;;;;;;;3.90;3.50;;;4.70;99.90;;;;;;4979613;28;21081;-64
2023/12/24 01:05:33;;;;;;;3.50;3.20;;;4.70;99.90;;;;;;4978636;28;20606;-64
2023/12/24 01:08:03;;;;;;;3.83;3.53;;;4.70;99.90;;;;;;4978788;28;20476;-64
2023/12/24 01:10:31;;;;;;;3.50;3.20;;;4.70;99.90;;;;;;4980538;28;20492;-64
2023/12/24 01:12:59;;;;;;;3.60;3.30;;;4.80;99.90;;;;;;4978579;28;20993;-64
2023/12/24 01:15:27;;;;;;;3.97;3.60;;;4.80;99.90;;;;;;4978348;28;20501;-64
2023/12/24 01:17:55;;;;;;;3.50;3.20;;;4.80;99.90;;;;;;4978124;28;20545;-64
2023/12/24 01:20:24;;;;;;;4.37;3.40;;;4.80;99.90;;;;;;4978383;28;20470;-64
2023/12/24 01:22:52;;;;;;;3.43;3.13;;;4.80;99.90;;;;;;4977085;28;20504;-63
2023/12/24 01:25:21;;;;;;;4.10;3.70;;;4.80;99.90;;;;;;4977600;28;20489;-64
2023/12/24 01:27:52;;;;;;;3.83;3.53;;;4.80;99.90;;;;;;4975444;28;21685;-64
2023/12/24 01:30:21;;;;;;;4.33;3.77;;;4.80;99.90;;;;;;4977664;28;20741;-64
2023/12/24 01:32:49;;;;;;;3.60;3.30;;;4.80;99.90;;;;;;4980955;28;20480;-63
2023/12/24 01:35:17;;;;;;;3.90;3.60;;;4.80;99.90;;;;;;4977762;28;21086;-64
2023/12/24 01:37:45;;;;;;;4.70;4.30;;;4.80;99.90;;;;;;4974781;28;20485;-64
2023/12/24 01:40:13;;;;;;;4.73;4.30;;;4.80;99.90;;;;;;4979902;28;20477;-64
2023/12/24 01:42:45;;;;;;;3.60;3.30;;;4.90;99.90;;;;;;4977070;28;20580;-64
2023/12/24 01:45:13;;;;;;;4.00;3.70;;;4.90;99.90;;;;;;4978144;28;20494;-64
2023/12/24 01:47:43;;;;;;;4.80;4.33;;;4.80;99.90;;;;;;4976450;28;20557;-63
2023/12/24 01:50:17;;;;;;;4.03;3.70;;;4.90;99.90;;;;;;4980310;28;20480;-64
2023/12/24 01:52:46;;;;;;;4.13;3.57;;;4.90;99.90;;;;;;4980143;28;20477;-63
2023/12/24 01:55:14;;;;;;;4.93;4.43;;;4.90;99.90;;;;;;4978367;28;20565;-63
2023/12/24 01:57:44;;;;;;;5.00;4.50;;;4.90;99.90;;;;;;4972886;28;20480;-64
2023/12/24 02:00:13;;;;;;;4.97;4.50;;;5.00;99.90;;;;;;4978481;28;20469;-63
2023/12/24 02:02:43;;;;;;;5.27;4.77;;;5.00;99.90;;;;;;4974841;28;20474;-63
2023/12/24 02:05:11;;;;;;;5.27;4.77;;;5.00;99.90;;;;;;4979404;28;20539;-63
2023/12/24 02:07:41;;;;;;;4.90;4.30;;;5.10;99.90;;;;;;4976825;28;20480;-65
2023/12/24 02:10:09;;;;;;;5.10;4.60;;;5.10;99.90;;;;;;4977000;28;20592;-63
2023/12/24 02:12:38;;;;;;;5.80;5.20;;;5.10;99.90;;;;;;4976642;28;20485;-63
2023/12/24 02:15:08;;;;;;;5.40;4.77;;;5.20;99.90;;;;;;4976659;28;20928;-63
2023/12/24 02:17:36;;;;;;;4.60;4.13;;;5.30;99.90;;;;;;4974858;28;20516;-63
2023/12/24 02:20:06;;;;;;;5.13;4.57;;;5.30;99.90;;;;;;4977242;28;20508;-63
2023/12/24 02:22:35;;;;;;;3.83;3.43;;;5.40;99.90;;;;;;4978715;28;20505;-63
2023/12/24 02:25:04;;;;;;;2.90;2.20;;;5.50;99.90;;;;;;4976022;28;20567;-63
2023/12/24 02:27:38;;;;;;;1.43;1.33;;;5.60;99.90;;;;;;4978388;28;20545;-63
2023/12/24 02:30:13;;;;;;;1.20;1.10;;;5.80;99.90;;;;;;4977162;28;20496;-63
2023/12/24 02:32:43;;;;;;;1.03;0.87;;;6.10;99.90;;;;;;4975542;28;20464;-63
2023/12/24 02:35:13;;;;;;;0.50;0.50;;;6.30;99.90;;;;;;4978427;28;20476;-63
2023/12/24 02:37:42;;;;;;;1.13;0.57;;;6.50;99.90;;;;;;4976023;28;21025;-63
2023/12/24 02:40:10;;;;;;;0.67;0.67;;;6.80;99.90;;;;;;4977840;28;20474;-63
2023/12/24 02:42:38;;;;;;;0.60;0.60;;;6.90;99.90;;;;;;4973237;28;20473;-65
2023/12/24 02:45:07;;;;;;;0.60;0.60;;;7.00;99.90;;;;;;4977823;28;20516;-63
2023/12/24 02:47:36;;;;;;;0.50;0.50;;;7.10;99.90;;;;;;4976317;28;20569;-63
2023/12/24 02:50:06;;;;;;;0.60;0.60;;;7.20;99.90;;;;;;4976593;28;21021;-64
2023/12/24 02:52:34;;;;;;;0.70;0.70;;;7.20;99.90;;;;;;4978293;28;20473;-64
2023/12/24 02:55:04;;;;;;;0.53;0.53;;;7.30;99.90;;;;;;4976065;28;20505;-63
2023/12/24 02:57:32;;;;;;;1.00;0.70;;;7.40;99.90;;;;;;4974180;28;20516;-63
2023/12/24 03:00:00;;;;;;;0.60;0.60;;;7.50;99.90;;;;;;4971774;28;20530;-63
2023/12/24 03:02:28;;;;;;;0.70;0.70;;;7.50;99.90;;;;;;4972842;28;20505;-63
2023/12/24 03:04:56;;;;;;;0.70;0.70;;;7.60;99.90;;;;;;4975492;28;20501;-63
2023/12/24 03:07:24;;;;;;;0.50;0.50;;;7.60;99.90;;;;;;4977266;28;20592;-64
2023/12/24 03:09:52;;;;;;;0.60;0.50;;;7.70;99.90;;;;;;4977306;28;20516;-63
2023/12/24 03:12:21;;;;;;;0.50;0.50;;;7.70;99.90;;;;;;4976711;28;20473;-63
2023/12/24 03:14:49;;;;;;;0.50;0.50;;;7.80;99.90;;;;;;4976015;28;21018;-63
2023/12/24 03:17:17;;;;;;;0.60;0.60;;;7.80;99.90;;;;;;4976870;28;20499;-63
2023/12/24 03:19:45;;;;;;;0.43;0.43;;;7.80;99.90;;;;;;4979919;28;20520;-63
2023/12/24 03:22:13;;;;;;;1.07;0.73;;;7.90;99.90;;;;;;4982100;28;21024;-64
2023/12/24 03:24:41;;;;;;;0.80;0.50;;;7.90;99.90;;;;;;4983064;28;21085;-63
2023/12/24 03:27:09;;;;;;;0.60;0.60;;;8.00;99.90;;;;;;4979593;28;20502;-64
2023/12/24 03:29:38;;;;;;;0.50;0.50;;;8.00;99.90;;;;;;4980259;28;20510;-63
2023/12/24 03:32:07;;;;;;;0.90;0.50;;;8.00;99.90;;;;;;4979582;28;20470;-64
2023/12/24 03:34:35;;;;;;;0.40;0.40;;;8.00;99.90;;;;;;4981033;28;20476;-63
2023/12/24 03:37:03;;;;;;;0.50;0.50;;;8.00;99.90;;;;;;4981009;28;20531;-63
2023/12/24 03:39:31;;;;;;;0.60;0.50;;;8.00;99.90;;;;;;4978286;28;20492;-63
2023/12/24 03:41:59;;;;;;;0.60;0.60;;;8.10;99.90;;;;;;4982197;28;20473;-64
2023/12/24 03:44:27;;;;;;;0.50;0.50;;;8.20;99.90;;;;;;4978673;28;20489;-63
2023/12/24 03:46:57;;;;;;;0.60;0.60;;;8.20;99.90;;;;;;4981463;28;20497;-64
2023/12/24 03:49:25;;;;;;;0.63;0.57;;;8.20;99.90;;;;;;4981146;28;20504;-63
2023/12/24 03:51:53;;;;;;;0.50;0.50;;;8.20;99.90;;;;;;4979256;28;20480;-64
2023/12/24 03:54:21;;;;;;;0.57;0.57;;;8.20;99.90;;;;;;4977372;28;20955;-64
2023/12/24 03:56:49;;;;;;;0.60;0.60;;;8.20;99.90;;;;;;4982896;28;20927;-64
2023/12/24 03:59:17;;;;;;;0.53;0.40;;;8.30;99.90;;;;;;4981494;28;20481;-64
2023/12/24 04:01:48;;;;;;;0.50;0.50;;;8.30;99.90;;;;;;4980798;28;20516;-64
2023/12/24 04:04:18;;;;;;;0.60;0.60;;;8.30;99.90;;;;;;4978796;28;20571;-64
2023/12/24 04:06:47;;;;;;;0.70;0.70;;;8.30;99.90;;;;;;4975390;28;20923;-63
2023/12/24 04:09:15;;;;;;;0.60;0.60;;;8.30;99.90;;;;;;4978217;28;20489;-63
2023/12/24 04:11:43;;;;;;;0.83;0.70;;;8.40;99.90;;;;;;4977403;28;20592;-63
2023/12/24 04:14:11;;;;;;;0.93;0.60;;;8.40;99.90;;;;;;4978272;28;20498;-65
2023/12/24 04:16:39;;;;;;;0.80;0.60;;;8.40;99.90;;;;;;4978868;28;20492;-63
2023/12/24 04:19:07;;;;;;;1.13;0.70;;;8.50;99.90;;;;;;4978959;28;20481;-63
2023/12/24 04:21:36;;;;;;;0.60;0.57;;;8.50;99.90;;;;;;4979533;28;20471;-63
2023/12/24 04:24:05;;;;;;;1.07;0.70;;;8.50;99.90;;;;;;4978415;28;21027;-63
2023/12/24 04:26:36;;;;;;;0.77;0.57;;;8.50;99.90;;;;;;4976882;28;20540;-63
2023/12/24 04:29:05;;;;;;;0.50;0.50;;;8.50;99.90;;;;;;4979052;28;20485;-63
2023/12/24 04:31:33;;;;;;;0.70;0.70;;;8.50;99.90;;;;;;4977407;28;20942;-65
2023/12/24 04:34:01;;;;;;;0.60;0.60;;;8.50;99.90;;;;;;4980738;28;20555;-65
2023/12/24 04:36:29;;;;;;;1.37;0.60;;;8.50;99.90;;;;;;4978828;28;20531;-65
2023/12/24 04:38:58;;;;;;;0.60;0.60;;;8.50;99.90;;;;;;4977866;28;21093;-65
2023/12/24 04:41:28;;;;;;;0.50;0.50;;;8.60;99.90;;;;;;4977995;28;20959;-65
2023/12/24 04:43:56;;;;;;;0.50;0.50;;;8.50;99.90;;;;;;4980684;28;20476;-64
2023/12/24 04:46:24;;;;;;;0.53;0.53;;;8.50;99.90;;;;;;4977844;28;20485;-64
2023/12/24 04:48:52;;;;;;;0.97;0.50;;;8.50;99.90;;;;;;4979051;28;20482;-65
2023/12/24 04:51:20;;;;;;;0.60;0.60;;;8.50;99.90;;;;;;4982004;28;20475;-64
2023/12/24 04:53:50;;;;;;;0.53;0.50;;;8.50;99.90;;;;;;4979038;28;20473;-64
2023/12/24 04:56:23;;;;;;;0.60;0.60;;;8.50;99.90;;;;;;4969707;28;20500;-65
2023/12/24 04:58:53;;;;;;;0.50;0.47;;;8.50;99.90;;;;;;4979855;28;21335;-65
2023/12/24 05:01:21;;;;;;;0.40;0.40;;;8.50;99.90;;;;;;4980925;28;21062;-65
2023/12/24 05:03:49;;;;;;;0.50;0.50;;;8.60;99.90;;;;;;4979725;28;20947;-65
2023/12/24 05:06:17;;;;;;;0.87;0.60;;;8.60;99.90;;;;;;4977760;28;20505;-64
2023/12/24 05:08:45;;;;;;;0.50;0.50;;;8.60;99.90;;;;;;4979909;28;20563;-65
2023/12/24 05:11:13;;;;;;;0.63;0.53;;;8.60;99.90;;;;;;4980396;28;20919;-64
2023/12/24 05:13:43;;;;;;;0.50;0.50;;;8.60;99.90;;;;;;4979546;28;20872;-65
2023/12/24 05:16:11;;;;;;;0.80;0.50;;;8.60;99.90;;;;;;4974222;28;20488;-64
2023/12/24 05:18:39;;;;;;;0.50;0.50;;;8.60;99.90;;;;;;4978085;28;20514;-68
2023/12/24 05:21:07;;;;;;;0.50;0.50;;;8.60;99.90;;;;;;4978055;28;20481;-65
2023/12/24 05:23:35;;;;;;;0.57;0.57;;;8.60;99.90;;;;;;4979371;28;20572;-64
2023/12/24 05:26:04;;;;;;;0.50;0.50;;;8.60;99.90;;;;;;4977795;28;20888;-65
2023/12/24 05:28:32;;;;;;;0.60;0.50;;;8.60;99.90;;;;;;4978506;28;20545;-65
2023/12/24 05:31:01;;;;;;;0.63;0.50;;;8.60;99.90;;;;;;4978560;28;21112;-64
2023/12/24 05:33:29;;;;;;;0.60;0.60;;;8.60;99.90;;;;;;4976942;28;20978;-64
2023/12/24 05:35:59;;;;;;;0.70;0.60;;;8.70;99.90;;;;;;4978150;28;20547;-64
2023/12/24 05:38:27;;;;;;;0.50;0.50;;;8.70;99.90;;;;;;4973748;28;20496;-64
2023/12/24 05:40:55;;;;;;;0.77;0.60;;;8.70;99.90;;;;;;4976560;28;20478;-65
2023/12/24 05:43:23;;;;;;;0.63;0.60;;;8.70;99.90;;;;;;4978943;28;20488;-64
2023/12/24 05:45:51;;;;;;;0.50;0.50;;;8.70;99.90;;;;;;4975819;28;20555;-64
2023/12/24 05:48:20;;;;;;;0.60;0.60;;;8.70;99.90;;;;;;4977155;28;20590;-64
2023/12/24 05:50:48;;;;;;;0.80;0.80;;;8.70;99.90;;;;;;4977682;28;20493;-65
2023/12/24 05:53:16;;;;;;;1.43;0.63;;;8.70;99.90;;;;;;4979051;28;20480;-64
2023/12/24 05:55:44;;;;;;;0.60;0.60;;;8.70;99.90;;;;;;4975967;28;20990;-64
2023/12/24 05:58:12;;;;;;;0.70;0.60;;;8.70;99.90;;;;;;4977993;28;20512;-63
2023/12/24 06:00:40;;;;;;;0.60;0.60;;;8.70;99.90;;;;;;4978044;28;21012;-64
2023/12/24 06:03:08;;;;;;;0.60;0.60;;;8.70;99.90;;;;;;4976920;28;20943;-65
2023/12/24 06:05:37;;;;;;;1.00;0.60;;;8.70;99.90;;;;;;4970769;28;20494;-64
2023/12/24 06:08:06;;;;;;;0.50;0.50;;;8.70;99.90;;;;;;4976279;28;20512;-64
2023/12/24 06:10:35;;;;;;;0.50;0.50;;;8.70;99.90;;;;;;4975216;28;20477;-65
2023/12/24 06:13:03;;;;;;;0.50;0.50;;;8.70;99.90;;;;;;4975755;28;20568;-64
2023/12/24 06:15:31;;;;;;;0.43;0.43;;;8.70;99.90;;;;;;4976455;28;20488;-64
2023/12/24 06:17:59;;;;;;;0.60;0.60;;;8.80;99.90;;;;;;4973776;28;20585;-64
2023/12/24 06:20:29;;;;;;;0.40;0.40;;;8.70;99.90;;;;;;4974572;28;20527;-64
2023/12/24 06:22:59;;;;;;;0.50;0.50;;;8.80;99.90;;;;;;4977860;28;21204;-64
2023/12/24 06:25:26;;;;;;;0.50;0.50;;;8.80;99.90;;;;;;4975705;28;20505;-64
2023/12/24 06:27:54;;;;;;;0.50;0.40;;;8.70;99.90;;;;;;4971803;28;20475;-64
2023/12/24 06:30:22;;;;;;;0.40;0.40;;;8.80;99.90;;;;;;4974564;28;20469;-64
2023/12/24 06:32:50;;;;;;;0.40;0.33;;;8.80;99.90;;;;;;4979166;28;20902;-64
2023/12/24 06:35:21;;;;;;;0.60;0.60;;;8.80;99.90;;;;;;4975917;28;20587;-65
2023/12/24 06:37:49;;;;;;;0.60;0.60;;;8.80;99.90;;;;;;4976224;28;20505;-65
2023/12/24 06:40:18;;;;;;;0.83;0.80;;;8.80;99.90;;;;;;4975506;28;20473;-64
2023/12/24 06:42:46;;;;;;;0.70;0.60;;;8.80;99.90;;;;;;4979224;28;20511;-64
2023/12/24 06:45:14;;;;;;;0.70;0.70;;;8.80;99.90;;;;;;4977305;28;21007;-64
2023/12/24 06:47:42;;;;;;;0.50;0.50;;;8.80;99.90;;;;;;4977495;28;20564;-64
2023/12/24 06:50:10;;;;;;;0.83;0.60;;;8.80;99.90;;;;;;4976360;28;20530;-64
2023/12/24 06:52:38;;;;;;;0.83;0.50;;;8.90;99.90;;;;;;4978272;28;20552;-64
2023/12/24 06:55:07;;;;;;;0.50;0.50;;;8.90;99.90;;;;;;4973733;28;20572;-64
2023/12/24 06:57:36;;;;;;;0.60;0.60;;;8.90;99.90;;;;;;4978108;28;21079;-64
2023/12/24 07:00:06;;;;;;;0.50;0.50;;;8.90;99.90;;;;;;4976200;28;20482;-64
2023/12/24 07:02:34;;;;;;;0.70;0.70;;;8.90;99.90;;;;;;4973431;28;20480;-64
2023/12/24 07:05:02;;;;;;;0.77;0.40;;;8.90;99.90;;;;;;4976497;28;20493;-64
2023/12/24 07:07:30;;;;;;;0.50;0.50;;;8.90;99.90;;;;;;4979833;28;20508;-64
2023/12/24 07:09:58;;;;;;;0.97;0.57;;;8.90;99.90;;;;;;4975492;28;20612;-65
2023/12/24 07:12:30;;;;;;;0.40;0.40;;;8.90;99.90;;;;;;4978314;28;20527;-65
2023/12/24 07:14:59;;;;;;;0.60;0.53;;;8.90;99.90;;;;;;4978123;28;21027;-65
2023/12/24 07:17:27;;;;;;;0.50;0.50;;;8.90;99.90;;;;;;4977366;28;20489;-64
2023/12/24 07:19:55;;;;;;;0.40;0.40;;;8.90;99.90;;;;;;4973626;28;20485;-67
2023/12/24 07:22:23;;;;;;;0.60;0.60;;;8.90;99.90;;;;;;4979094;28;20561;-65
2023/12/24 07:24:51;;;;;;;0.67;0.67;;;8.90;99.90;;;;;;4978221;28;20497;-65
2023/12/24 07:27:21;;;;;;;0.87;0.87;;;9.00;99.90;;;;;;4976813;28;20607;-65
2023/12/24 07:29:49;;;;;;;0.53;0.53;;;9.00;99.90;;;;;;4978387;28;20488;-65
2023/12/24 07:32:18;;;;;;;0.60;0.60;;;9.00;99.90;;;;;;4976974;28;20508;-65
2023/12/24 07:34:46;;;;;;;0.50;0.50;;;9.00;99.90;;;;;;4975890;28;20495;-65
2023/12/24 07:37:14;;;;;;;0.83;0.63;;;9.00;99.90;;;;;;4976374;28;20490;-65
2023/12/24 07:39:43;;;;;;;0.63;0.60;;;9.00;99.90;;;;;;4968764;28;20493;-67
2023/12/24 07:42:11;;;;;;;0.60;0.60;;;9.00;99.90;;;;;;4975006;28;20869;-65
2023/12/24 07:44:39;;;;;;;0.60;0.60;;;9.00;99.90;;;;;;4978689;28;20568;-65
2023/12/24 07:47:08;;;;;;;0.60;0.60;;;9.10;99.90;;;;;;4975517;28;20501;-65
2023/12/24 07:49:37;;;;;;;0.70;0.70;;;9.00;99.90;;;;;;4977364;28;20486;-65
2023/12/24 07:52:06;;;;;;;0.80;0.80;;;9.10;99.90;;;;;;4976788;28;20585;-65
2023/12/24 07:54:34;;;;;;;0.80;0.80;;;9.10;99.90;;;;;;4975034;28;20465;-65
2023/12/24 07:57:04;;;;;;;0.90;0.90;;;9.10;99.90;;;;;;4971435;28;20501;-65
2023/12/24 07:59:32;;;;;;;1.23;0.70;;;9.10;99.90;;;;;;4971832;28;20514;-66
2023/12/24 08:02:00;;;;;;;0.87;0.87;;;9.10;99.90;;;;;;4975409;28;20495;-64
2023/12/24 08:04:28;;;;;;;0.80;0.80;;;9.10;99.90;;;;;;4968289;28;20554;-65
2023/12/24 08:06:58;;;;;;;0.77;0.77;;;9.20;99.90;;;;;;4974535;28;20537;-65
2023/12/24 08:09:26;;;;;;;0.70;0.70;;;9.20;99.90;;;;;;4980668;28;20480;-64
2023/12/24 08:11:54;;;;;;;0.90;0.80;;;9.20;99.90;;;;;;4973918;28;20569;-65
2023/12/24 08:14:22;;;;;;;1.20;0.87;;;9.10;99.90;;;;;;4974036;28;20476;-64
2023/12/24 08:16:50;;;;;;;0.80;0.80;;;9.20;99.90;;;;;;4975460;28;21013;-65
2023/12/24 08:19:18;;;;;;;0.90;0.70;;;9.20;99.90;;;;;;4976335;28;20493;-64
2023/12/24 08:21:46;;;;;;;0.80;0.80;;;9.20;99.90;;;;;;4977392;28;20480;-65
2023/12/24 08:24:16;;;;;;;0.83;0.83;;;9.20;99.90;;;;;;4979245;28;20500;-65
2023/12/24 08:26:44;;;;;;;0.80;0.80;;;9.20;99.90;;;;;;4965556;28;21271;-63
2023/12/24 08:29:12;;;;;;;0.60;0.60;;;9.20;99.90;;;;;;4959338;28;20497;-67
2023/12/24 08:31:40;;;;;;;0.63;0.63;;;9.20;99.90;;;;;;4970312;28;20492;-66
2023/12/24 08:34:08;;;;;;;0.80;0.77;;;9.20;99.90;;;;;;4964551;28;21153;-66
2023/12/24 08:36:37;;;;;;;0.63;0.63;;;9.20;99.90;;;;;;4967115;28;20493;-66
2023/12/24 08:39:05;;;;;;;0.60;0.60;;;9.20;99.90;;;;;;4974475;28;20499;-67
2023/12/24 08:41:34;;;;;;;0.60;0.60;;;9.20;99.90;;;;;;4972015;28;20636;-66
2023/12/24 08:44:03;;;;;;;0.77;0.77;;;9.30;99.90;;;;;;4972942;28;20476;-66
2023/12/24 08:46:31;;;;;;;0.77;0.77;;;9.30;99.90;;;;;;4973774;28;20584;-66
2023/12/24 08:48:59;;;;;;;0.80;0.80;;;9.30;99.90;;;;;;4966549;28;20517;-66
2023/12/24 08:51:27;;;;;;;0.73;0.70;;;9.30;99.90;;;;;;4965542;28;20486;-66
2023/12/24 08:53:55;;;;;;;0.60;0.60;;;9.30;99.90;;;;;;4967778;28;20496;-66
2023/12/24 08:56:23;;;;;;;0.80;0.80;;;9.30;99.90;;;;;;4970908;28;20516;-67
2023/12/24 08:58:53;;;;;;;2.83;1.90;;;9.30;99.90;;;;;;4974288;28;20535;-64
2023/12/24 09:01:21;;;;;;;2.87;2.10;;;9.40;99.90;;;;;;4973634;28;20624;-64
2023/12/24 09:03:49;;;;;;;1.97;0.90;;;9.40;99.90;;;;;;4968552;28;20527;-66
2023/12/24 09:06:17;;;;;;;0.90;0.87;;;9.50;99.90;;;;;;4970711;28;21021;-66
2023/12/24 09:08:45;;;;;;;1.00;1.00;;;9.50;99.90;;;;;;4966927;28;20581;-66
2023/12/24 09:11:13;;;;;;;1.03;0.90;;;9.50;99.90;;;;;;4978558;28;20609;-66
2023/12/24 09:13:41;;;;;;;0.90;0.90;;;9.50;99.90;;;;;;4972364;28;20921;-64
2023/12/24 09:16:11;;;;;;;0.80;0.70;;;9.50;99.90;;;;;;4966039;28;20510;-65
2023/12/24 09:18:38;;;;;;;0.80;0.80;;;9.50;99.90;;;;;;4974793;28;20488;-65
2023/12/24 09:21:07;;;;;;;0.80;0.80;;;9.50;99.90;;;;;;4972587;28;20531;-65
2023/12/24 09:23:35;;;;;;;0.70;0.70;;;9.50;99.90;;;;;;4979650;28;20543;-65
2023/12/24 09:26:03;;;;;;;0.67;0.67;;;9.60;99.90;;;;;;4977903;28;20505;-65
2023/12/24 09:28:31;;;;;;;0.70;0.70;;;9.50;99.90;;;;;;4978971;28;20492;-65
2023/12/24 09:30:59;;;;;;;0.80;0.80;;;9.60;99.90;;;;;;4975616;28;20859;-67
2023/12/24 09:33:28;;;;;;;1.60;1.40;;;9.60;99.90;;;;;;4976425;28;20507;-65
2023/12/24 09:35:56;;;;;;;1.10;1.10;;;9.60;99.90;;;;;;4972588;28;21059;-65
2023/12/24 09:38:24;;;;;;;1.20;1.10;;;9.60;99.90;;;;;;4979072;28;20496;-63
2023/12/24 09:40:52;;;;;;;1.77;1.10;;;9.60;99.90;;;;;;4981360;28;20543;-65
2023/12/24 09:43:21;;;;;;;0.90;0.90;;;9.60;99.90;;;;;;4982602;28;20536;-64
2023/12/24 09:45:49;;;;;;;0.53;0.53;;;9.60;99.90;;;;;;4981358;28;20489;-64
2023/12/24 09:48:17;;;;;;;0.80;0.80;;;9.60;99.90;;;;;;4980451;28;20570;-65
2023/12/24 09:50:46;;;;;;;0.97;0.87;;;9.60;99.90;;;;;;4980410;28;20986;-64
2023/12/24 09:53:15;;;;;;;0.70;0.70;;;9.60;99.90;;;;;;4980717;28;20868;-65
2023/12/24 09:55:43;;;;;;;1.10;0.70;;;9.70;99.90;;;;;;4980116;28;20501;-64
2023/12/24 09:58:11;;;;;;;0.63;0.63;;;9.70;99.90;;;;;;4980689;28;20486;-65
2023/12/24 10:00:39;;;;;;;0.60;0.60;;;9.70;99.90;;;;;;4980089;28;20477;-65
2023/12/24 10:03:09;;;;;;;0.90;0.70;;;9.70;99.90;;;;;;4977936;28;20473;-65
2023/12/24 10:06:04;;;;;;;0.70;0.70;;;9.70;99.90;;;;;;4981156;28;20493;-67
2023/12/24 10:08:36;;;;;;;0.77;0.77;;;9.80;99.90;;;;;;4980925;28;21068;-66
2023/12/24 10:11:15;;;;;;;0.67;0.67;;;9.80;99.90;;;;;;4980248;28;20560;-66
2023/12/24 10:13:44;;;;;;;0.50;0.50;;;9.80;99.90;;;;;;4981605;28;20517;-66
2023/12/24 10:16:14;;;;;;;0.70;0.70;;;9.80;99.90;;;;;;4980062;28;21013;-66
2023/12/24 10:18:49;;;;;;;0.63;0.60;;;9.90;99.90;;;;;;4981188;28;20504;-64
2023/12/24 10:21:21;;;;;;;0.70;0.63;;;9.90;99.90;;;;;;4979161;28;20482;-65
2023/12/24 10:23:49;;;;;;;1.10;0.80;;;9.90;99.90;;;;;;4981088;28;20488;-64
2023/12/24 10:26:23;;;;;;;1.10;0.70;;;9.90;99.90;;;;;;4980836;28;20562;-65
2023/12/24 10:28:53;;;;;;;0.70;0.70;;;10.00;99.90;;;;;;4976394;28;20493;-65
2023/12/24 10:31:31;;;;;;;0.70;0.70;;;10.00;99.90;;;;;;4981434;28;20582;-65
2023/12/24 10:34:00;;;;;;;0.57;0.57;;;10.00;99.90;;;;;;4980790;28;20536;-65
2023/12/24 10:36:30;;;;;;;0.80;0.70;;;10.00;99.90;;;;;;4978323;28;20593;-65
2023/12/24 10:38:58;;;;;;;0.50;0.50;;;10.00;99.90;;;;;;4979493;28;21704;-65
2023/12/24 10:41:26;;;;;;;0.67;0.67;;;10.00;99.90;;;;;;4980175;28;20564;-64
2023/12/24 10:43:54;;;;;;;0.60;0.50;;;10.10;99.90;;;;;;4980916;28;20841;-65
2023/12/24 10:46:22;;;;;;;1.13;0.70;;;10.00;99.90;;;;;;4980085;28;21101;-64
2023/12/24 10:48:50;;;;;;;0.70;0.70;;;10.10;99.90;;;;;;4978015;28;20520;-65
2023/12/24 10:51:19;;;;;;;0.70;0.70;;;10.00;99.90;;;;;;4979449;28;20507;-65
2023/12/24 10:53:49;;;;;;;1.17;0.80;;;10.10;99.90;;;;;;4980390;28;20519;-66
2023/12/24 10:56:24;;;;;;;0.60;0.60;;;10.10;99.90;;;;;;4980131;28;21052;-65
2023/12/24 10:59:01;;;;;;;1.27;0.90;;;10.20;99.90;;;;;;4979554;28;20863;-65
2023/12/24 11:01:30;;;;;;;0.70;0.70;;;10.10;99.90;;;;;;4981292;28;20483;-64
2023/12/24 11:03:58;;;;;;;1.13;1.03;;;10.20;99.90;;;;;;4980357;28;20527;-66
2023/12/24 11:06:45;;;;;;;0.83;0.73;;;10.20;99.90;;;;;;4979059;28;20872;-64
2023/12/24 11:09:47;;;;;;;0.60;0.60;;;10.20;99.90;;;;;;4978694;28;20576;-65
2023/12/24 11:12:31;;;;;;;0.70;0.70;;;10.20;99.90;;;;;;4978944;28;21004;-64
2023/12/24 11:14:59;;;;;;;0.87;0.87;;;10.30;99.90;;;;;;4978458;28;20471;-66
2023/12/24 11:17:49;;;;;;;1.00;0.90;;;10.30;99.90;;;;;;4979391;28;20580;-65
2023/12/24 11:20:31;;;;;;;0.50;0.50;;;10.40;99.90;;;;;;4975612;28;20979;-66
2023/12/24 11:23:11;;;;;;;0.83;0.63;;;10.40;99.90;;;;;;4979326;28;20477;-66
2023/12/24 11:25:41;;;;;;;2.30;0.90;;;10.40;99.90;;;;;;4977954;28;20508;-65
2023/12/24 11:28:12;;;;;;;0.83;0.60;;;10.40;99.90;;;;;;4979314;28;20533;-65
2023/12/24 11:31:03;;;;;;;1.47;0.80;;;10.40;99.90;;;;;;4981261;28;20469;-65
2023/12/24 11:33:45;;;;;;;0.80;0.80;;;10.40;99.90;;;;;;4980910;28;20470;-65
2023/12/24 11:36:16;;;;;;;0.70;0.70;;;10.40;99.90;;;;;;4978496;28;21073;-65
2023/12/24 11:38:45;;;;;;;1.00;0.90;;;10.40;99.90;;;;;;4980520;28;20537;-65
2023/12/24 11:41:20;;;;;;;0.80;0.80;;;10.40;99.90;;;;;;4984660;28;20468;-65
2023/12/24 11:43:53;;;;;;;1.53;1.17;;;10.40;99.90;;;;;;4984727;28;20531;-65
2023/12/24 11:46:22;;;;;;;1.67;1.57;;;10.40;99.90;;;;;;4983873;28;20579;-65
2023/12/24 11:48:50;;;;;;;1.10;1.00;;;10.40;99.90;;;;;;4983354;28;20481;-65
2023/12/24 11:51:23;;;;;;;0.97;0.90;;;10.40;99.90;;;;;;4983014;28;20478;-66
2023/12/24 11:54:00;;;;;;;0.90;0.90;;;10.50;99.90;;;;;;4983163;28;20558;-65
2023/12/24 11:56:31;;;;;;;0.80;0.80;;;10.50;99.90;;;;;;4982278;28;20494;-66
2023/12/24 11:59:00;;;;;;;1.87;0.77;;;10.40;99.90;;;;;;4982703;28;20914;-66
2023/12/24 12:01:30;;;;;;;0.77;0.77;;;10.50;99.90;;;;;;4983337;28;20480;-66
2023/12/24 12:04:00;;;;;;;0.80;0.80;;;10.50;99.90;;;;;;4982604;28;20547;-66
2023/12/24 12:06:29;;;;;;;0.97;0.90;;;10.50;99.90;;;;;;4981774;28;20491;-65
2023/12/24 12:09:00;;;;;;;1.10;0.80;;;10.50;99.90;;;;;;4981334;28;21094;-65
2023/12/24 12:11:30;;;;;;;0.97;0.93;;;10.50;99.90;;;;;;4983970;28;20477;-65
2023/12/24 12:13:58;;;;;;;0.97;0.97;;;10.50;99.90;;;;;;4981947;28;20480;-65
2023/12/24 12:16:26;;;;;;;1.03;0.93;;;10.50;99.90;;;;;;4982407;28;20588;-65
2023/12/24 12:18:54;;;;;;;0.80;0.80;;;10.50;99.90;;;;;;4982387;28;20851;-66
2023/12/24 12:21:22;;;;;;;0.90;0.90;;;10.50;99.90;;;;;;4982738;28;20583;-66
2023/12/24 12:23:50;;;;;;;0.83;0.83;;;10.50;99.90;;;;;;4982388;28;20572;-66
2023/12/24 12:26:18;;;;;;;0.80;0.80;;;10.60;99.90;;;;;;4982272;28;20515;-66
2023/12/24 12:28:48;;;;;;;0.80;0.80;;;10.60;99.90;;;;;;4981032;28;20584;-66
2023/12/24 12:31:16;;;;;;;0.87;0.87;;;10.60;99.90;;;;;;4982890;28;20484;-66
2023/12/24 12:33:44;;;;;;;1.10;1.07;;;10.60;99.90;;;;;;4984133;28;20958;-66
2023/12/24 12:36:17;;;;;;;0.80;0.80;;;10.60;99.90;;;;;;4982530;28;20575;-64
2023/12/24 12:38:45;;;;;;;1.20;1.10;;;10.60;99.90;;;;;;4981638;28;20481;-64
2023/12/24 12:41:13;;;;;;;1.10;0.90;;;10.60;99.90;;;;;;4982324;28;20477;-64
2023/12/24 12:43:41;;;;;;;0.83;0.80;;;10.60;99.90;;;;;;4981600;28;20470;-66
2023/12/24 12:46:11;;;;;;;0.77;0.77;;;10.70;99.90;;;;;;4981410;28;20934;-66
2023/12/24 12:48:40;;;;;;;1.07;0.90;;;10.70;99.90;;;;;;4981857;28;20573;-64
2023/12/24 12:51:09;;;;;;;1.20;0.63;;;10.70;99.90;;;;;;4982527;28;20553;-64
2023/12/24 12:53:37;;;;;;;0.63;0.63;;;10.70;99.90;;;;;;4980813;28;20505;-64
2023/12/24 12:56:07;;;;;;;0.70;0.70;;;10.70;99.90;;;;;;4981062;28;20577;-64
2023/12/24 12:58:35;;;;;;;0.80;0.80;;;10.70;99.90;;;;;;4980091;28;20806;-64
2023/12/24 13:01:04;;;;;;;0.73;0.73;;;10.80;99.90;;;;;;4983014;28;20500;-64
2023/12/24 13:03:35;;;;;;;1.43;1.20;;;10.80;99.90;;;;;;4983153;28;20505;-64
2023/12/24 13:06:14;;;;;;;1.23;1.13;;;10.80;99.90;;;;;;4980222;28;20865;-64